createdAt,value
2022-09-22T00:01:31.859Z,12.70
2022-09-22T00:04:03.600Z,12.60
2022-09-22T00:06:35.126Z,12.60
2022-09-22T00:09:04.492Z,12.50
2022-09-22T00:11:36.109Z,12.40
2022-09-22T00:14:07.453Z,12.30
2022-09-22T00:16:38.971Z,12.30
2022-09-22T00:19:07.820Z,12.20
2022-09-22T00:21:37.477Z,12.20
2022-09-22T00:24:07.875Z,12.10
2022-09-22T00:26:36.820Z,12.00
2022-09-22T00:29:07.942Z,12.00
2022-09-22T00:31:37.111Z,12.00
2022-09-22T00:34:05.733Z,11.90
2022-09-22T00:36:33.885Z,11.80
2022-09-22T00:39:03.133Z,11.80
2022-09-22T00:41:34.037Z,11.70
2022-09-22T00:44:30.224Z,11.70
2022-09-22T00:47:01.969Z,11.70
2022-09-22T00:49:49.114Z,11.70
2022-09-22T00:52:20.695Z,11.70
2022-09-22T00:54:51.668Z,11.70
2022-09-22T00:57:23.361Z,11.70
2022-09-22T00:59:52.915Z,11.80
2022-09-22T01:02:21.624Z,11.70
2022-09-22T01:04:51.694Z,11.70
2022-09-22T01:07:21.005Z,11.70
2022-09-22T01:09:50.255Z,11.70
2022-09-22T01:12:18.076Z,11.60
2022-09-22T01:15:01.227Z,11.60
2022-09-22T01:17:37.054Z,11.50
2022-09-22T01:20:45.815Z,11.50
2022-09-22T01:23:47.626Z,11.40
2022-09-22T01:26:40.634Z,11.40
2022-09-22T01:29:30.907Z,11.40
2022-09-22T01:32:05.879Z,11.40
2022-09-22T01:34:37.015Z,11.30
2022-09-22T01:37:11.649Z,11.20
2022-09-22T01:39:42.973Z,11.20
2022-09-22T01:42:16.370Z,11.40
2022-09-22T01:44:49.201Z,11.20
2022-09-22T01:47:22.185Z,11.20
2022-09-22T01:49:53.078Z,11.10
2022-09-22T01:52:24.884Z,11.10
2022-09-22T01:57:29.705Z,11.00
2022-09-22T02:00:06.470Z,10.90
2022-09-22T02:02:45.164Z,10.80
2022-09-22T02:05:18.241Z,10.80
2022-09-22T02:07:49.763Z,10.80
2022-09-22T02:18:10.995Z,10.60
2022-09-22T02:20:39.016Z,10.60
2022-09-22T02:23:07.087Z,10.60
2022-09-22T02:25:34.965Z,10.80
2022-09-22T02:28:03.326Z,10.50
2022-09-22T02:30:31.330Z,10.50
2022-09-22T02:33:00.164Z,10.40
2022-09-22T02:35:31.394Z,10.50
2022-09-22T02:38:04.527Z,10.50
2022-09-22T02:40:38.855Z,10.60
2022-09-22T02:45:44.988Z,10.40
2022-09-22T02:48:19.657Z,10.40
2022-09-22T02:50:48.785Z,10.50
2022-09-22T03:03:13.344Z,10.20
2022-09-22T03:05:41.284Z,10.20
2022-09-22T03:08:10.356Z,10.00
2022-09-22T03:10:38.149Z,10.00
2022-09-22T03:13:21.232Z,10.50
2022-09-22T03:15:49.811Z,10.00
2022-09-22T03:18:18.230Z,10.30
2022-09-22T03:20:46.588Z,10.00
2022-09-22T03:23:15.813Z,10.00
2022-09-22T03:25:43.977Z,10.00
2022-09-22T03:33:10.510Z,9.70
2022-09-22T03:40:36.438Z,9.70
2022-09-22T04:23:27.823Z,9.70
2022-09-22T04:25:56.919Z,9.80
2022-09-22T04:28:24.885Z,10.00
2022-09-22T04:30:52.649Z,9.80
2022-09-22T04:33:20.520Z,9.60
2022-09-22T04:35:49.482Z,9.80
2022-09-22T04:38:17.784Z,9.80
2022-09-22T04:40:46.276Z,9.80
2022-09-22T04:43:15.465Z,9.70
2022-09-22T04:45:45.838Z,9.70
2022-09-22T04:48:13.617Z,9.60
2022-09-22T04:53:16.233Z,9.50
2022-09-22T04:55:44.116Z,9.50
2022-09-22T04:58:11.953Z,9.50
2022-09-22T05:00:41.055Z,9.50
2022-09-22T05:03:09.760Z,9.60
2022-09-22T05:05:38.114Z,9.50
2022-09-22T05:08:07.299Z,9.60
2022-09-22T05:10:36.896Z,9.50
2022-09-22T05:13:05.683Z,9.40
2022-09-22T05:15:34.532Z,9.60
2022-09-22T05:18:03.816Z,9.70
2022-09-22T05:20:31.556Z,9.40
2022-09-22T05:22:59.645Z,9.50
2022-09-22T05:25:27.675Z,9.50
2022-09-22T05:27:56.881Z,9.50
2022-09-22T05:30:26.646Z,9.50
2022-09-22T05:32:54.668Z,9.60
2022-09-22T05:35:25.986Z,9.60
2022-09-22T05:37:54.780Z,9.70
2022-09-22T05:40:24.034Z,9.70
2022-09-22T05:42:53.208Z,9.60
2022-09-22T05:45:21.899Z,9.60
2022-09-22T05:47:50.250Z,9.60
2022-09-22T05:50:20.283Z,9.70
2022-09-22T05:52:49.393Z,9.80
2022-09-22T05:55:17.393Z,9.70
2022-09-22T05:57:45.152Z,9.80
2022-09-22T06:00:13.770Z,9.80
2022-09-22T06:02:44.022Z,9.80
2022-09-22T06:05:13.233Z,9.90
2022-09-22T06:07:42.916Z,10.00
2022-09-22T06:10:12.789Z,10.00
2022-09-22T06:12:40.804Z,10.10
2022-09-22T06:15:09.453Z,10.20
2022-09-22T06:17:37.277Z,10.30
2022-09-22T06:20:05.841Z,10.40
2022-09-22T06:22:37.019Z,10.50
2022-09-22T06:25:05.548Z,10.60
2022-09-22T06:27:34.663Z,10.80
2022-09-22T06:30:02.508Z,10.90
2022-09-22T06:32:30.305Z,10.90
2022-09-22T06:35:01.108Z,11.00
2022-09-22T06:37:29.091Z,11.10
2022-09-22T06:39:56.832Z,11.10
2022-09-22T06:42:24.619Z,11.20
2022-09-22T06:44:55.157Z,11.20
2022-09-22T06:47:23.741Z,11.30
2022-09-22T06:49:51.528Z,11.40
2022-09-22T06:52:19.279Z,11.50
2022-09-22T06:54:50.228Z,11.50
2022-09-22T06:57:19.704Z,11.60
2022-09-22T06:59:48.330Z,11.70
2022-09-22T07:02:18.285Z,11.70
2022-09-22T07:04:47.411Z,11.80
2022-09-22T07:07:15.190Z,11.90
2022-09-22T07:09:42.956Z,12.00
2022-09-22T07:12:10.820Z,12.10
2022-09-22T07:14:38.859Z,12.20
2022-09-22T07:17:06.620Z,12.20
2022-09-22T07:19:36.466Z,12.20
2022-09-22T07:22:04.469Z,12.30
2022-09-22T07:24:32.208Z,12.30
2022-09-22T07:27:04.916Z,12.40
2022-09-22T07:29:33.237Z,12.50
2022-09-22T07:32:02.406Z,12.60
2022-09-22T07:34:30.372Z,12.70
2022-09-22T07:37:00.324Z,12.80
2022-09-22T07:39:28.301Z,12.90
2022-09-22T07:41:56.081Z,13.00
2022-09-22T07:44:44.484Z,13.10
2022-09-22T07:47:13.002Z,13.10
2022-09-22T07:49:40.746Z,13.10
2022-09-22T07:52:09.957Z,13.20
2022-09-22T07:54:39.669Z,13.20
2022-09-22T07:57:11.028Z,13.20
2022-09-22T07:59:39.606Z,13.20
2022-09-22T08:02:08.113Z,13.20
2022-09-22T08:04:36.030Z,13.20
2022-09-22T08:07:04.067Z,13.30
2022-09-22T08:09:33.506Z,13.20
2022-09-22T08:12:02.173Z,13.40
2022-09-22T08:14:31.009Z,13.50
2022-09-22T08:16:58.876Z,13.60
2022-09-22T08:19:26.696Z,13.80
2022-09-22T08:21:54.903Z,13.80
2022-09-22T08:24:23.842Z,13.80
2022-09-22T08:26:55.669Z,13.90
2022-09-22T08:29:24.299Z,13.90
2022-09-22T08:31:52.171Z,14.00
2022-09-22T08:34:20.247Z,14.00
2022-09-22T08:36:48.641Z,14.00
2022-09-22T08:42:04.135Z,14.10
2022-09-22T08:47:06.172Z,14.40
2022-09-22T08:49:56.955Z,14.60
2022-09-22T08:52:31.467Z,14.70
2022-09-22T08:55:01.142Z,14.70
2022-09-22T08:57:56.014Z,14.80
2022-09-22T09:00:25.662Z,14.90
2022-09-22T09:03:10.573Z,15.10
2022-09-22T09:05:50.837Z,15.10
2022-09-22T09:11:18.153Z,15.30
2022-09-22T09:14:04.412Z,15.20
2022-09-22T09:27:14.704Z,15.30
2022-09-22T09:30:00.702Z,15.60
2022-09-22T09:40:06.508Z,15.50
2022-09-22T09:42:36.315Z,15.40
2022-09-22T09:45:07.003Z,15.50
2022-09-22T09:47:59.423Z,15.40
2022-09-22T09:50:31.952Z,15.50
2022-09-22T09:53:00.350Z,15.70
2022-09-22T09:55:28.762Z,15.90
2022-09-22T09:58:05.455Z,16.10
2022-09-22T10:00:35.031Z,16.00
2022-09-22T10:03:15.735Z,16.00
2022-09-22T10:05:43.989Z,16.00
2022-09-22T10:08:20.015Z,16.30
2022-09-22T10:10:49.151Z,16.10
2022-09-22T10:13:25.125Z,16.40
2022-09-22T10:16:07.417Z,16.30
2022-09-22T10:21:07.121Z,16.30
2022-09-22T10:23:35.849Z,16.50
2022-09-22T10:26:21.591Z,16.60
2022-09-22T10:29:09.204Z,16.80
2022-09-22T10:31:39.280Z,16.60
2022-09-22T10:34:23.691Z,16.80
2022-09-22T10:39:20.596Z,17.20
2022-09-22T10:41:50.010Z,17.10
2022-09-22T10:44:38.629Z,17.00
2022-09-22T10:47:27.998Z,16.80
2022-09-22T10:50:42.583Z,16.90
2022-09-22T10:53:31.109Z,16.90
2022-09-22T10:56:08.249Z,16.70
2022-09-22T10:58:52.834Z,16.60
2022-09-22T11:01:35.076Z,16.60
2022-09-22T11:04:17.614Z,16.60
2022-09-22T11:07:23.496Z,16.70
2022-09-22T11:10:15.598Z,16.90
2022-09-22T11:12:51.609Z,17.10
2022-09-22T11:15:41.180Z,17.20
2022-09-22T11:18:39.770Z,17.20
2022-09-22T11:21:22.484Z,17.10
2022-09-22T11:24:06.757Z,16.80
2022-09-22T11:26:47.360Z,16.90
2022-09-22T11:29:46.517Z,17.00
2022-09-22T11:32:33.712Z,17.00
2022-09-22T11:38:09.402Z,17.40
2022-09-22T11:40:52.700Z,17.50
2022-09-22T11:43:49.902Z,17.50
2022-09-22T11:46:28.253Z,17.50
2022-09-22T11:49:11.299Z,17.50
2022-09-22T11:51:56.625Z,17.50
2022-09-22T11:54:54.366Z,17.50
2022-09-22T11:57:27.921Z,17.30
2022-09-22T12:00:01.033Z,17.20
2022-09-22T12:02:46.465Z,17.20
2022-09-22T12:05:19.346Z,17.20
2022-09-22T12:07:54.099Z,17.30
2022-09-22T12:10:35.115Z,17.30
2022-09-22T12:13:04.335Z,17.40
2022-09-22T12:15:37.853Z,17.50
2022-09-22T12:18:10.924Z,17.50
2022-09-22T12:20:48.692Z,17.50
2022-09-22T12:23:31.283Z,17.70
2022-09-22T12:26:05.593Z,17.70
2022-09-22T12:28:38.589Z,17.80
2022-09-22T12:31:12.709Z,17.70
2022-09-22T12:33:47.612Z,17.60
2022-09-22T12:36:17.128Z,17.70
2022-09-22T12:38:45.983Z,17.70
2022-09-22T12:41:19.574Z,17.90
2022-09-22T12:43:48.532Z,17.90
2022-09-22T12:46:25.555Z,18.00
2022-09-22T12:48:53.643Z,18.20
2022-09-22T12:51:32.352Z,18.10
2022-09-22T12:54:28.658Z,18.10
2022-09-22T12:57:00.547Z,17.90
2022-09-22T12:59:47.102Z,17.50
2022-09-22T13:02:18.925Z,17.50
2022-09-22T13:05:20.698Z,17.40
2022-09-22T13:07:48.483Z,17.30
2022-09-22T13:10:40.904Z,17.30
2022-09-22T13:13:36.563Z,17.30
2022-09-22T13:16:25.669Z,17.40
2022-09-22T13:18:59.859Z,17.40
2022-09-22T13:21:29.925Z,17.30
2022-09-22T13:24:00.090Z,17.40
2022-09-22T13:26:30.704Z,17.40
2022-09-22T13:29:06.675Z,17.30
2022-09-22T13:31:42.986Z,17.20
2022-09-22T13:34:27.995Z,17.10
2022-09-22T13:37:00.799Z,17.20
2022-09-22T13:39:32.453Z,17.30
2022-09-22T13:42:06.352Z,17.50
2022-09-22T13:44:39.947Z,17.60
2022-09-22T13:47:17.987Z,17.70
2022-09-22T13:49:51.291Z,17.80
2022-09-22T13:52:22.584Z,17.70
2022-09-22T13:54:55.631Z,17.90
2022-09-22T13:57:27.116Z,17.90
2022-09-22T13:59:58.698Z,17.80
2022-09-22T14:02:31.640Z,17.80
2022-09-22T14:05:02.786Z,17.80
2022-09-22T14:07:34.173Z,17.60
2022-09-22T14:10:04.790Z,17.40
2022-09-22T14:12:33.189Z,17.30
2022-09-22T14:15:39.179Z,17.20
2022-09-22T14:18:14.241Z,17.10
2022-09-22T14:20:43.478Z,17.00
2022-09-22T14:23:23.737Z,17.10
2022-09-22T14:25:51.541Z,17.00
2022-09-22T14:28:23.510Z,17.00
2022-09-22T14:30:53.121Z,16.90
2022-09-22T14:33:25.652Z,16.80
2022-09-22T14:36:01.270Z,16.60
2022-09-22T14:38:34.282Z,16.50
2022-09-22T14:41:02.829Z,16.50
2022-09-22T14:43:35.422Z,16.40
2022-09-22T14:46:22.905Z,16.40
2022-09-22T14:48:51.157Z,16.50
2022-09-22T14:51:21.209Z,16.50
2022-09-22T14:53:52.464Z,16.50
2022-09-22T14:56:27.563Z,16.40
2022-09-22T14:58:57.434Z,16.50
2022-09-22T15:01:48.434Z,16.60
2022-09-22T15:04:18.865Z,16.70
2022-09-22T15:06:48.099Z,16.80
2022-09-22T15:09:24.479Z,16.90
2022-09-22T15:11:53.747Z,17.00
2022-09-22T15:14:27.031Z,16.90
2022-09-22T15:17:16.490Z,16.90
2022-09-22T15:19:44.279Z,16.90
2022-09-22T15:22:14.439Z,16.80
2022-09-22T15:24:42.533Z,16.80
2022-09-22T15:27:17.483Z,16.70
2022-09-22T15:29:45.533Z,16.70
2022-09-22T15:32:15.436Z,16.60
2022-09-22T15:34:45.061Z,16.50
2022-09-22T15:37:17.181Z,16.30
2022-09-22T15:39:44.940Z,16.20
2022-09-22T15:42:12.943Z,16.40
2022-09-22T15:44:40.998Z,16.10
2022-09-22T15:47:16.454Z,16.10
2022-09-22T15:49:44.907Z,16.00
2022-09-22T15:52:12.754Z,16.10
2022-09-22T15:54:40.580Z,16.00
2022-09-22T15:57:08.359Z,16.00
2022-09-22T15:59:38.843Z,15.90
2022-09-22T16:02:11.479Z,15.90
2022-09-22T16:04:40.642Z,15.80
2022-09-22T16:07:12.320Z,15.80
2022-09-22T16:09:40.275Z,15.70
2022-09-22T16:12:10.839Z,15.70
2022-09-22T16:14:39.464Z,15.80
2022-09-22T16:17:08.106Z,15.90
2022-09-22T16:19:36.172Z,15.90
2022-09-22T16:22:05.819Z,15.90
2022-09-22T16:24:33.601Z,15.90
2022-09-22T16:27:05.941Z,15.90
2022-09-22T16:29:37.275Z,15.70
2022-09-22T16:32:05.651Z,15.50
2022-09-22T16:34:34.777Z,15.40
2022-09-22T16:37:03.406Z,15.30
2022-09-22T16:39:32.563Z,15.20
2022-09-22T16:42:00.327Z,15.20
2022-09-22T16:44:28.190Z,15.10
2022-09-22T16:46:56.361Z,15.00
2022-09-22T16:49:25.538Z,14.90
2022-09-22T16:51:54.215Z,14.90
2022-09-22T16:54:24.671Z,14.90
2022-09-22T16:56:54.658Z,14.90
2022-09-22T16:59:24.124Z,14.90
2022-09-22T17:01:52.009Z,14.90
2022-09-22T17:04:20.034Z,14.90
2022-09-22T17:06:48.571Z,14.90
2022-09-22T17:09:17.707Z,15.00
2022-09-22T17:11:48.611Z,14.90
2022-09-22T17:14:21.066Z,14.90
2022-09-22T17:16:51.803Z,14.90
2022-09-22T17:19:21.106Z,14.90
2022-09-22T17:21:50.914Z,14.80
2022-09-22T17:24:19.242Z,14.70
2022-09-22T17:26:48.777Z,14.60
2022-09-22T17:29:20.958Z,14.60
2022-09-22T17:31:48.964Z,14.50
2022-09-22T17:34:17.101Z,14.40
2022-09-22T17:36:45.761Z,14.30
2022-09-22T17:39:13.947Z,14.30
2022-09-22T17:41:45.258Z,14.30
2022-09-22T17:44:13.735Z,14.30
2022-09-22T17:47:02.891Z,14.20
2022-09-22T17:49:48.292Z,14.20
2022-09-22T17:52:34.559Z,14.10
2022-09-22T17:55:11.679Z,13.90
2022-09-22T17:57:41.003Z,13.80
2022-09-22T18:00:11.202Z,13.70
2022-09-22T18:02:40.412Z,13.70
2022-09-22T18:05:10.883Z,13.70
2022-09-22T18:07:40.149Z,13.70
2022-09-22T18:10:10.154Z,13.60
2022-09-22T18:12:38.086Z,13.60
2022-09-22T18:15:07.185Z,13.60
2022-09-22T18:17:41.509Z,13.60
2022-09-22T18:20:12.439Z,13.50
2022-09-22T18:22:41.331Z,13.50
2022-09-22T18:25:10.261Z,13.40
2022-09-22T18:27:38.939Z,13.40
2022-09-22T18:30:07.842Z,13.40
2022-09-22T18:32:36.078Z,13.40
2022-09-22T18:35:05.536Z,13.40
2022-09-22T18:37:34.631Z,13.40
2022-09-22T18:40:03.153Z,13.40
2022-09-22T18:42:32.695Z,13.40
2022-09-22T18:45:00.448Z,11.90
2022-09-22T18:47:28.289Z,13.30
2022-09-22T18:49:56.862Z,13.30
2022-09-22T18:52:24.903Z,13.20
2022-09-22T18:54:54.847Z,13.20
2022-09-22T18:57:24.356Z,13.20
2022-09-22T18:59:52.324Z,13.10
2022-09-22T19:02:22.307Z,13.20
2022-09-22T19:04:52.034Z,13.20
2022-09-22T19:07:42.058Z,13.10
2022-09-22T19:10:14.040Z,13.10
2022-09-22T19:12:42.452Z,13.10
2022-09-22T19:15:14.964Z,13.00
2022-09-22T19:20:14.494Z,12.90
2022-09-22T19:22:42.541Z,12.80
2022-09-22T19:25:12.096Z,12.80
2022-09-22T19:27:40.646Z,12.80
2022-09-22T19:30:09.636Z,12.80
2022-09-22T19:32:37.640Z,12.80
2022-09-22T19:35:06.734Z,12.70
2022-09-22T19:37:34.926Z,12.70
2022-09-22T19:40:02.895Z,12.70
2022-09-22T19:42:32.036Z,12.60
2022-09-22T19:45:00.075Z,12.60
2022-09-22T19:47:27.859Z,12.70
2022-09-22T19:49:56.297Z,12.70
2022-09-22T19:52:24.154Z,12.60
2022-09-22T19:54:52.766Z,12.60
2022-09-22T19:57:20.574Z,12.70
2022-09-22T20:04:48.045Z,12.10
2022-09-22T20:07:16.055Z,12.30
2022-09-22T20:09:43.898Z,12.10
2022-09-22T20:12:11.631Z,12.10
2022-09-22T20:14:39.437Z,12.10
2022-09-22T20:17:09.735Z,12.10
2022-09-22T20:19:39.235Z,12.00
2022-09-22T20:22:25.046Z,12.00
2022-09-22T20:24:55.476Z,12.00
2022-09-22T20:27:25.322Z,11.90
2022-09-22T20:29:57.016Z,12.10
2022-09-22T20:32:27.502Z,12.10
2022-09-22T20:34:56.278Z,11.90
2022-09-22T20:37:25.080Z,11.90
2022-09-22T20:39:52.977Z,11.80
2022-09-22T20:42:21.489Z,11.80
2022-09-22T20:44:49.469Z,11.80
2022-09-22T20:47:19.326Z,11.80
2022-09-22T20:49:51.800Z,11.80
2022-09-22T20:52:21.066Z,11.80
2022-09-22T20:54:49.355Z,11.80
2022-09-22T20:57:17.492Z,11.70
2022-09-22T20:59:45.793Z,11.70
2022-09-22T21:02:14.691Z,11.70
2022-09-22T21:04:42.993Z,11.70
2022-09-22T21:07:12.197Z,11.70
2022-09-22T21:09:57.890Z,11.70
2022-09-22T21:12:31.095Z,11.70
2022-09-22T21:14:59.355Z,11.60
2022-09-22T21:17:27.630Z,11.60
2022-09-22T21:19:57.060Z,11.50
2022-09-22T21:22:27.903Z,11.50
2022-09-22T21:24:56.190Z,11.40
2022-09-22T21:27:24.297Z,11.40
2022-09-22T21:29:53.039Z,11.40
2022-09-22T21:32:20.871Z,11.40
2022-09-22T21:34:48.647Z,11.40
2022-09-22T21:39:46.296Z,11.40
2022-09-22T21:42:14.129Z,11.40
2022-09-22T21:44:41.990Z,11.50
2022-09-22T21:47:11.402Z,11.50
2022-09-22T21:49:39.312Z,11.50
2022-09-22T21:52:07.134Z,11.50
2022-09-22T21:54:35.019Z,11.60
2022-09-22T21:57:04.108Z,11.60
2022-09-22T21:59:31.948Z,11.60
2022-09-22T22:02:00.555Z,11.60
2022-09-22T22:04:28.407Z,11.60
2022-09-22T22:06:56.192Z,11.70
2022-09-22T22:09:25.595Z,11.70
2022-09-22T22:11:56.201Z,11.70
2022-09-22T22:14:27.989Z,11.70
2022-09-22T22:16:56.646Z,11.80
2022-09-22T22:19:26.747Z,11.80
2022-09-22T22:21:54.969Z,11.90
2022-09-22T22:24:37.033Z,11.90
2022-09-22T22:27:06.992Z,11.90
2022-09-22T22:29:38.433Z,11.90
2022-09-22T22:32:08.551Z,11.90
2022-09-22T22:34:36.397Z,11.80
2022-09-22T22:37:07.010Z,11.80
2022-09-22T22:39:35.030Z,11.90
2022-09-22T22:42:02.812Z,11.70
2022-09-22T22:44:30.559Z,11.70
2022-09-22T22:46:59.719Z,11.70
2022-09-22T22:49:28.158Z,11.60
2022-09-22T22:51:55.918Z,11.60
2022-09-22T22:56:51.924Z,11.50
2022-09-22T23:01:48.185Z,11.40
2022-09-22T23:04:17.500Z,11.30
2022-09-22T23:06:47.659Z,11.30
2022-09-22T23:09:17.508Z,11.30
2022-09-22T23:11:46.237Z,11.20
2022-09-22T23:14:15.840Z,11.20
2022-09-22T23:16:45.890Z,11.20
2022-09-22T23:19:15.222Z,11.20
2022-09-22T23:21:45.004Z,11.20
2022-09-22T23:24:16.052Z,11.20
2022-09-22T23:26:44.307Z,11.10
2022-09-22T23:29:12.100Z,11.10
2022-09-22T23:31:40.090Z,11.10
2022-09-22T23:34:07.822Z,11.10
2022-09-22T23:36:35.733Z,11.00
2022-09-22T23:39:05.436Z,11.00
2022-09-22T23:41:34.301Z,10.90
2022-09-22T23:44:02.744Z,11.00
2022-09-22T23:46:30.722Z,11.00
2022-09-22T23:48:59.980Z,10.80
2022-09-22T23:51:27.943Z,10.90
2022-09-22T23:53:56.076Z,10.90
2022-09-22T23:56:25.849Z,10.90
2022-09-22T23:58:53.892Z,10.90
